createdAt,value
2019-02-12T00:00:12.222Z,20.92
2019-02-12T00:02:40.603Z,20.91
2019-02-12T00:05:08.991Z,20.92
2019-02-12T00:07:37.385Z,20.92
2019-02-12T00:10:06.877Z,20.92
2019-02-12T00:12:35.236Z,20.91
2019-02-12T00:15:04.634Z,20.91
2019-02-12T00:17:33.024Z,20.90
2019-02-12T00:20:01.418Z,20.89
2019-02-12T00:22:29.855Z,20.88
2019-02-12T00:24:58.215Z,20.89
2019-02-12T00:27:26.599Z,20.88
2019-02-12T00:29:54.978Z,20.89
2019-02-12T00:32:23.457Z,20.87
2019-02-12T00:34:51.841Z,20.88
2019-02-12T00:37:20.352Z,20.88
2019-02-12T00:39:48.706Z,20.86
2019-02-12T00:42:17.095Z,20.87
2019-02-12T00:44:45.478Z,20.86
2019-02-12T00:47:13.875Z,20.86
2019-02-12T00:49:42.342Z,20.86
2019-02-12T00:52:10.735Z,20.85
2019-02-12T00:54:39.122Z,20.85
2019-02-12T00:57:07.510Z,20.84
2019-02-12T00:59:35.915Z,20.83
2019-02-12T01:02:04.377Z,20.84
2019-02-12T01:04:32.761Z,20.83
2019-02-12T01:07:01.145Z,20.83
2019-02-12T01:09:29.642Z,20.82
2019-02-12T01:11:58.141Z,20.81
2019-02-12T01:14:26.516Z,20.80
2019-02-12T01:16:54.905Z,20.81
2019-02-12T01:19:23.286Z,20.80
2019-02-12T01:21:51.678Z,20.80
2019-02-12T01:24:20.224Z,20.80
2019-02-12T01:26:48.610Z,20.79
2019-02-12T01:29:17.074Z,20.79
2019-02-12T01:31:45.463Z,20.79
2019-02-12T01:34:13.849Z,20.78
2019-02-12T01:36:42.244Z,20.77
2019-02-12T01:39:11.962Z,20.77
2019-02-12T01:41:40.356Z,20.77
2019-02-12T01:44:08.741Z,20.77
2019-02-12T01:46:37.176Z,20.76
2019-02-12T01:49:05.557Z,20.75
2019-02-12T01:51:35.301Z,20.75
2019-02-12T01:54:03.714Z,20.74
2019-02-12T01:56:32.107Z,20.74
2019-02-12T01:59:00.509Z,20.73
2019-02-12T02:01:28.903Z,20.73
2019-02-12T02:03:57.278Z,20.73
2019-02-12T02:06:25.662Z,20.71
2019-02-12T02:08:54.046Z,20.73
2019-02-12T02:11:22.427Z,20.71
2019-02-12T02:13:50.824Z,20.71
2019-02-12T02:16:19.214Z,20.70
2019-02-12T02:18:47.601Z,20.69
2019-02-12T02:21:15.981Z,20.69
2019-02-12T02:23:44.381Z,20.68
2019-02-12T02:26:12.763Z,20.68
2019-02-12T02:28:41.147Z,20.68
2019-02-12T02:31:09.526Z,20.67
2019-02-12T02:33:37.901Z,20.67
2019-02-12T02:36:06.270Z,20.66
2019-02-12T02:38:34.660Z,20.66
2019-02-12T02:41:03.031Z,20.64
2019-02-12T02:43:31.427Z,20.64
2019-02-12T02:46:00.443Z,20.65
2019-02-12T02:48:28.826Z,20.64
2019-02-12T02:50:57.199Z,20.63
2019-02-12T02:53:25.585Z,20.62
2019-02-12T02:55:53.959Z,20.62
2019-02-12T02:58:22.368Z,20.62
2019-02-12T03:00:50.713Z,20.60
2019-02-12T03:03:19.096Z,20.58
2019-02-12T03:05:47.470Z,20.59
2019-02-12T03:08:15.855Z,20.59
2019-02-12T03:10:44.233Z,20.58
2019-02-12T03:13:12.617Z,20.57
2019-02-12T03:15:40.988Z,20.57
2019-02-12T03:18:09.384Z,20.56
2019-02-12T03:20:37.759Z,20.56
2019-02-12T03:23:06.139Z,20.56
2019-02-12T03:25:34.506Z,20.57
2019-02-12T03:28:02.902Z,20.57
2019-02-12T03:30:31.277Z,20.58
2019-02-12T03:32:59.657Z,20.56
2019-02-12T03:35:28.028Z,20.56
2019-02-12T03:37:56.409Z,20.56
2019-02-12T03:40:24.791Z,20.56
2019-02-12T03:42:53.171Z,20.57
2019-02-12T03:45:21.542Z,20.55
2019-02-12T03:47:49.920Z,20.56
2019-02-12T03:50:18.302Z,20.55
2019-02-12T03:52:46.681Z,20.55
2019-02-12T03:55:15.125Z,20.54
2019-02-12T03:57:43.572Z,20.55
2019-02-12T04:00:17.993Z,20.54
2019-02-12T04:03:00.350Z,20.53
2019-02-12T04:05:28.722Z,20.53
2019-02-12T04:07:57.099Z,20.52
2019-02-12T04:10:25.720Z,20.51
2019-02-12T04:12:54.098Z,20.50
2019-02-12T04:15:22.534Z,20.50
2019-02-12T04:17:50.908Z,20.49
2019-02-12T04:20:19.285Z,20.49
2019-02-12T04:22:47.662Z,20.49
2019-02-12T04:25:16.043Z,20.49
2019-02-12T04:27:44.412Z,20.50
2019-02-12T04:30:12.864Z,20.49
2019-02-12T04:32:41.235Z,20.49
2019-02-12T04:35:09.614Z,20.50
2019-02-12T04:37:37.987Z,20.48
2019-02-12T04:40:09.515Z,20.48
2019-02-12T04:42:38.124Z,20.48
2019-02-12T04:45:09.581Z,20.48
2019-02-12T04:47:37.974Z,20.48
2019-02-12T04:50:09.761Z,20.48
2019-02-12T04:52:38.147Z,20.48
2019-02-12T04:55:08.395Z,20.46
2019-02-12T04:57:36.761Z,20.47
2019-02-12T05:00:10.926Z,20.46
2019-02-12T05:02:39.314Z,20.45
2019-02-12T05:05:09.835Z,20.46
2019-02-12T05:07:38.199Z,20.46
2019-02-12T05:10:18.557Z,20.45
2019-02-12T05:12:46.933Z,20.46
2019-02-12T05:15:15.306Z,20.44
2019-02-12T05:17:43.678Z,20.45
2019-02-12T05:20:14.650Z,20.44
2019-02-12T05:22:43.902Z,20.44
2019-02-12T05:25:13.124Z,20.44
2019-02-12T05:27:41.533Z,20.43
2019-02-12T05:30:14.318Z,20.44
2019-02-12T05:32:42.708Z,20.44
2019-02-12T05:35:11.074Z,20.43
2019-02-12T05:37:39.466Z,20.43
2019-02-12T05:40:09.968Z,20.43
2019-02-12T05:42:38.342Z,20.43
2019-02-12T05:45:12.039Z,20.41
2019-02-12T05:47:40.419Z,20.42
2019-02-12T05:50:11.426Z,20.41
2019-02-12T05:52:39.796Z,20.41
2019-02-12T05:55:08.324Z,20.42
2019-02-12T05:57:36.697Z,20.41
2019-02-12T06:00:10.911Z,20.40
2019-02-12T06:02:39.285Z,20.40
2019-02-12T06:05:07.832Z,20.41
2019-02-12T06:07:36.270Z,20.42
2019-02-12T06:10:07.375Z,20.40
2019-02-12T06:12:35.748Z,20.40
2019-02-12T06:15:05.764Z,20.39
2019-02-12T06:17:34.129Z,20.39
2019-02-12T06:20:02.505Z,20.38
2019-02-12T06:22:32.013Z,20.37
2019-02-12T06:25:00.640Z,20.38
2019-02-12T06:27:29.035Z,20.38
2019-02-12T06:29:57.424Z,20.36
2019-02-12T06:32:25.797Z,20.36
2019-02-12T06:34:54.196Z,20.37
2019-02-12T06:37:22.592Z,20.37
2019-02-12T06:39:51.053Z,20.36
2019-02-12T06:42:19.451Z,20.36
2019-02-12T06:44:47.918Z,20.35
2019-02-12T06:47:16.303Z,20.34
2019-02-12T06:49:44.689Z,20.34
2019-02-12T06:52:13.125Z,20.33
2019-02-12T06:54:41.515Z,20.32
2019-02-12T06:57:09.895Z,20.32
2019-02-12T06:59:38.286Z,20.31
2019-02-12T07:02:43.206Z,20.30
2019-02-12T07:05:11.592Z,20.31
2019-02-12T07:07:49.050Z,20.29
2019-02-12T07:10:17.456Z,20.29
2019-02-12T07:12:51.686Z,20.28
2019-02-12T07:15:23.106Z,20.25
2019-02-12T07:17:59.935Z,20.25
2019-02-12T07:20:31.460Z,20.24
2019-02-12T07:23:05.734Z,20.23
2019-02-12T07:25:48.915Z,20.22
2019-02-12T07:28:38.889Z,20.22
2019-02-12T07:31:16.287Z,20.21
2019-02-12T07:34:04.675Z,20.21
2019-02-12T07:37:09.329Z,20.18
2019-02-12T07:39:40.747Z,20.16
2019-02-12T07:42:21.199Z,20.15
2019-02-12T07:45:08.897Z,20.15
2019-02-12T07:48:07.892Z,20.14
2019-02-12T07:50:51.330Z,20.16
2019-02-12T07:53:31.003Z,20.15
2019-02-12T07:56:04.924Z,20.14
2019-02-12T07:58:58.899Z,20.15
2019-02-12T08:01:51.714Z,20.15
2019-02-12T08:04:54.722Z,20.15
2019-02-12T08:07:45.775Z,20.20
2019-02-12T08:10:36.686Z,20.18
2019-02-12T08:13:13.651Z,20.14
2019-02-12T08:15:54.018Z,20.12
2019-02-12T08:18:31.287Z,20.10
2019-02-12T08:21:11.269Z,20.07
2019-02-12T08:24:16.080Z,20.05
2019-02-12T08:26:53.189Z,20.04
2019-02-12T08:29:39.437Z,20.04
2019-02-12T08:32:19.419Z,20.03
2019-02-12T08:35:08.822Z,20.04
2019-02-12T08:37:52.274Z,20.04
2019-02-12T08:40:29.755Z,20.05
2019-02-12T08:43:01.179Z,20.04
2019-02-12T08:45:41.754Z,20.05
2019-02-12T08:48:34.176Z,20.06
2019-02-12T08:51:14.764Z,20.06
2019-02-12T08:54:19.481Z,20.06
2019-02-12T08:57:09.335Z,20.09
2019-02-12T09:00:03.631Z,20.11
2019-02-12T09:02:57.912Z,20.10
2019-02-12T09:05:32.060Z,20.10
2019-02-12T09:08:03.499Z,20.09
2019-02-12T09:10:37.804Z,20.11
2019-02-12T09:13:21.270Z,20.12
2019-02-12T09:16:09.693Z,20.13
2019-02-12T09:18:47.128Z,20.15
2019-02-12T09:21:36.887Z,20.16
2019-02-12T09:24:20.207Z,20.18
2019-02-12T09:26:54.419Z,20.17
2019-02-12T09:29:42.990Z,20.19
2019-02-12T09:32:38.092Z,20.20
2019-02-12T09:35:12.663Z,20.22
2019-02-12T09:37:59.247Z,20.22
2019-02-12T09:40:39.775Z,20.23
2019-02-12T09:43:20.303Z,20.25
2019-02-12T09:46:00.283Z,20.26
2019-02-12T09:48:43.521Z,20.26
2019-02-12T09:51:14.982Z,20.29
2019-02-12T09:53:55.058Z,20.30
2019-02-12T09:56:26.486Z,20.31
2019-02-12T09:59:00.551Z,20.32
2019-02-12T10:01:56.217Z,20.34
2019-02-12T10:04:45.627Z,20.36
2019-02-12T10:07:19.689Z,20.36
2019-02-12T10:09:57.276Z,20.37
2019-02-12T10:12:40.973Z,20.37
2019-02-12T10:15:30.007Z,20.40
2019-02-12T10:18:10.599Z,20.41
2019-02-12T10:20:50.999Z,20.41
2019-02-12T10:23:39.043Z,20.42
2019-02-12T10:26:10.760Z,20.44
2019-02-12T10:29:14.211Z,20.46
2019-02-12T10:31:41.734Z,20.48
2019-02-12T10:34:10.700Z,20.48
2019-02-12T10:36:39.250Z,20.50
2019-02-12T10:39:09.265Z,20.52
2019-02-12T10:41:37.689Z,20.55
2019-02-12T10:44:06.032Z,20.57
2019-02-12T10:46:34.411Z,20.60
2019-02-12T10:49:02.796Z,20.63
2019-02-12T10:51:31.190Z,20.63
2019-02-12T10:53:59.581Z,20.65
2019-02-12T10:56:27.959Z,20.67
2019-02-12T10:58:56.351Z,20.69
2019-02-12T11:01:24.726Z,20.72
2019-02-12T11:03:53.117Z,20.75
2019-02-12T11:06:21.493Z,20.79
2019-02-12T11:08:49.882Z,20.81
2019-02-12T11:11:18.252Z,20.83
2019-02-12T11:13:46.635Z,20.85
2019-02-12T11:16:15.010Z,20.88
2019-02-12T11:18:43.400Z,20.90
2019-02-12T11:21:12.342Z,20.91
2019-02-12T11:23:40.836Z,20.94
2019-02-12T11:26:09.213Z,20.94
2019-02-12T11:28:37.597Z,20.95
2019-02-12T11:31:06.141Z,20.98
2019-02-12T11:33:34.647Z,21.00
2019-02-12T11:36:03.025Z,21.02
2019-02-12T11:38:31.407Z,21.06
2019-02-12T11:40:59.792Z,21.08
2019-02-12T11:43:28.186Z,21.10
2019-02-12T11:45:56.562Z,21.13
2019-02-12T11:48:24.941Z,21.15
2019-02-12T11:50:53.317Z,21.16
2019-02-12T11:53:21.698Z,21.17
2019-02-12T11:55:50.073Z,21.19
2019-02-12T11:58:18.477Z,21.22
2019-02-12T12:00:48.490Z,21.24
2019-02-12T12:03:16.872Z,21.26
2019-02-12T12:05:45.243Z,21.27
2019-02-12T12:08:13.631Z,21.30
2019-02-12T12:10:42.012Z,21.29
2019-02-12T12:13:10.406Z,21.31
2019-02-12T12:15:38.770Z,21.33
2019-02-12T12:18:07.391Z,21.35
2019-02-12T12:20:35.762Z,21.37
2019-02-12T12:23:04.986Z,21.37
2019-02-12T12:25:33.369Z,21.39
2019-02-12T12:28:01.758Z,21.41
2019-02-12T12:30:30.135Z,21.42
2019-02-12T12:32:58.545Z,21.44
2019-02-12T12:35:26.922Z,21.46
2019-02-12T12:37:55.305Z,21.47
2019-02-12T12:40:23.685Z,21.47
2019-02-12T12:42:52.074Z,21.48
2019-02-12T12:45:20.453Z,21.50
2019-02-12T12:47:48.838Z,21.52
2019-02-12T12:50:17.215Z,21.54
2019-02-12T12:52:45.600Z,21.57
2019-02-12T12:55:13.969Z,21.56
2019-02-12T12:57:42.440Z,21.59
2019-02-12T13:00:13.141Z,21.60
2019-02-12T13:02:41.585Z,21.60
2019-02-12T13:05:11.115Z,21.61
2019-02-12T13:07:39.601Z,21.62
2019-02-12T13:10:10.888Z,21.62
2019-02-12T13:12:39.262Z,21.63
2019-02-12T13:15:10.292Z,21.65
2019-02-12T13:17:38.666Z,21.65
2019-02-12T13:20:10.051Z,21.67
2019-02-12T13:22:38.419Z,21.68
2019-02-12T13:25:08.976Z,21.67
2019-02-12T13:27:37.391Z,21.68
2019-02-12T13:30:09.518Z,21.68
2019-02-12T13:32:37.885Z,21.67
2019-02-12T13:35:07.310Z,21.69
2019-02-12T13:37:35.677Z,21.71
2019-02-12T13:40:05.467Z,21.71
2019-02-12T13:42:33.832Z,21.72
2019-02-12T13:45:02.211Z,21.74
2019-02-12T13:47:30.583Z,21.74
2019-02-12T13:49:59.310Z,21.76
2019-02-12T13:52:27.724Z,21.76
2019-02-12T13:54:56.101Z,21.76
2019-02-12T13:57:24.746Z,21.78
2019-02-12T13:59:53.120Z,21.78
2019-02-12T14:02:21.498Z,21.79
2019-02-12T14:04:49.875Z,21.80
2019-02-12T14:07:18.251Z,21.79
2019-02-12T14:09:46.636Z,21.80
2019-02-12T14:12:15.861Z,21.80
2019-02-12T14:14:44.267Z,21.81
2019-02-12T14:17:12.639Z,21.81
2019-02-12T14:19:41.018Z,21.80
2019-02-12T14:22:09.395Z,21.80
2019-02-12T14:24:38.156Z,21.80
2019-02-12T14:27:06.513Z,21.80
2019-02-12T14:29:35.950Z,21.78
2019-02-12T14:32:04.319Z,21.80
2019-02-12T14:34:32.752Z,21.81
2019-02-12T14:37:01.121Z,21.81
2019-02-12T14:39:29.505Z,21.83
2019-02-12T14:41:57.875Z,21.82
2019-02-12T14:44:26.261Z,21.85
2019-02-12T14:46:54.630Z,21.84
2019-02-12T14:49:23.016Z,21.83
2019-02-12T14:51:51.377Z,21.82
2019-02-12T14:54:19.762Z,21.81
2019-02-12T14:56:48.131Z,21.83
2019-02-12T14:59:16.521Z,21.83
2019-02-12T15:01:44.890Z,21.82
2019-02-12T15:04:13.343Z,21.81
2019-02-12T15:06:41.719Z,21.82
2019-02-12T15:09:10.093Z,21.82
2019-02-12T15:11:38.470Z,21.82
2019-02-12T15:14:06.853Z,21.81
2019-02-12T15:16:36.153Z,21.81
2019-02-12T15:19:04.523Z,21.81
2019-02-12T15:21:32.913Z,21.81
2019-02-12T15:24:01.277Z,21.81
2019-02-12T15:26:29.669Z,21.81
2019-02-12T15:28:58.043Z,21.82
2019-02-12T15:31:26.426Z,21.82
2019-02-12T15:33:54.798Z,21.82
2019-02-12T15:36:23.183Z,21.82
2019-02-12T15:38:51.551Z,21.82
2019-02-12T15:41:19.933Z,21.81
2019-02-12T15:43:48.301Z,21.82
2019-02-12T15:46:16.692Z,21.82
2019-02-12T15:48:45.057Z,21.82
2019-02-12T15:51:13.437Z,21.82
2019-02-12T15:53:41.818Z,21.81
2019-02-12T15:56:10.199Z,21.80
2019-02-12T15:58:38.569Z,21.80
2019-02-12T16:01:06.956Z,21.78
2019-02-12T16:03:36.473Z,21.78
2019-02-12T16:06:05.433Z,21.76
2019-02-12T16:08:33.807Z,21.74
2019-02-12T16:11:02.198Z,21.73
2019-02-12T16:13:30.576Z,21.73
2019-02-12T16:15:58.973Z,21.72
2019-02-12T16:18:27.343Z,21.73
2019-02-12T16:20:55.720Z,21.70
2019-02-12T16:23:24.087Z,21.70
2019-02-12T16:25:59.329Z,21.69
2019-02-12T16:28:22.569Z,21.68
2019-02-12T16:30:50.960Z,21.68
2019-02-12T16:33:19.336Z,21.69
2019-02-12T16:35:47.715Z,21.68
2019-02-12T16:38:16.090Z,21.67
2019-02-12T16:40:44.477Z,21.66
2019-02-12T16:43:13.118Z,21.65
2019-02-12T16:45:50.432Z,21.63
2019-02-12T16:48:18.813Z,21.62
2019-02-12T16:50:47.190Z,21.61
2019-02-12T16:53:15.567Z,21.60
2019-02-12T16:55:43.942Z,21.59
2019-02-12T16:58:12.310Z,21.59
2019-02-12T17:00:40.691Z,21.58
2019-02-12T17:03:09.065Z,21.57
2019-02-12T17:05:37.518Z,21.56
2019-02-12T17:08:05.889Z,21.55
2019-02-12T17:10:34.272Z,21.54
2019-02-12T17:13:02.645Z,21.54
2019-02-12T17:15:31.031Z,21.53
2019-02-12T17:17:59.400Z,21.52
2019-02-12T17:20:27.767Z,21.51
2019-02-12T17:22:56.153Z,21.49
2019-02-12T17:25:24.521Z,21.49
2019-02-12T17:27:52.901Z,21.47
2019-02-12T17:30:21.274Z,21.46
2019-02-12T17:32:49.656Z,21.44
2019-02-12T17:35:18.024Z,21.44
2019-02-12T17:37:46.410Z,21.43
2019-02-12T17:40:18.833Z,21.44
2019-02-12T17:42:47.225Z,21.43
2019-02-12T17:45:17.791Z,21.42
2019-02-12T17:47:46.251Z,21.41
2019-02-12T17:50:15.558Z,21.40
2019-02-12T17:52:44.012Z,21.39
2019-02-12T17:55:12.376Z,21.38
2019-02-12T17:57:40.760Z,21.37
2019-02-12T18:00:13.506Z,21.36
2019-02-12T18:02:42.117Z,21.37
2019-02-12T18:05:10.554Z,21.35
2019-02-12T18:07:38.939Z,21.34
2019-02-12T18:10:09.857Z,21.33
2019-02-12T18:12:38.238Z,21.33
2019-02-12T18:15:10.206Z,21.33
2019-02-12T18:17:38.583Z,21.32
2019-02-12T18:20:10.598Z,21.31
2019-02-12T18:22:39.018Z,21.31
2019-02-12T18:25:09.772Z,21.29
2019-02-12T18:27:38.319Z,21.29
2019-02-12T18:30:10.000Z,21.29
2019-02-12T18:32:38.380Z,21.30
2019-02-12T18:35:07.793Z,21.29
2019-02-12T18:37:36.175Z,21.27
2019-02-12T18:40:10.552Z,21.28
2019-02-12T18:42:38.936Z,21.30
2019-02-12T18:45:10.682Z,21.28
2019-02-12T18:47:39.077Z,21.28
2019-02-12T18:50:10.422Z,21.27
2019-02-12T18:52:38.878Z,21.27
2019-02-12T18:55:10.594Z,21.28
2019-02-12T18:57:38.975Z,21.27
2019-02-12T19:00:13.885Z,21.27
2019-02-12T19:02:42.267Z,21.26
2019-02-12T19:05:11.102Z,21.26
2019-02-12T19:07:39.486Z,21.24
2019-02-12T19:10:10.983Z,21.25
2019-02-12T19:12:39.378Z,21.25
2019-02-12T19:15:11.162Z,21.24
2019-02-12T19:17:39.920Z,21.24
2019-02-12T19:20:13.178Z,21.23
2019-02-12T19:22:41.562Z,21.24
2019-02-12T19:25:10.868Z,21.23
2019-02-12T19:27:39.268Z,21.22
2019-02-12T19:30:12.103Z,21.20
2019-02-12T19:32:40.486Z,21.19
2019-02-12T19:35:10.500Z,21.19
2019-02-12T19:37:38.877Z,21.19
2019-02-12T19:40:09.839Z,21.18
2019-02-12T19:42:38.472Z,21.17
2019-02-12T19:45:10.227Z,21.19
2019-02-12T19:47:38.612Z,21.17
2019-02-12T19:50:08.968Z,21.17
2019-02-12T19:52:37.347Z,21.17
2019-02-12T19:55:08.059Z,21.17
2019-02-12T19:57:36.514Z,21.16
2019-02-12T20:00:08.599Z,21.15
2019-02-12T20:02:36.976Z,21.15
2019-02-12T20:05:08.459Z,21.14
2019-02-12T20:07:36.839Z,21.14
2019-02-12T20:10:07.850Z,21.13
2019-02-12T20:12:36.229Z,21.15
2019-02-12T20:15:07.440Z,21.13
2019-02-12T20:17:35.819Z,21.13
2019-02-12T20:20:05.332Z,21.12
2019-02-12T20:22:33.714Z,21.12
2019-02-12T20:25:02.080Z,21.11
2019-02-12T20:27:35.825Z,21.11
2019-02-12T20:30:00.576Z,21.11
2019-02-12T20:32:28.948Z,21.11
2019-02-12T20:34:57.320Z,21.10
2019-02-12T20:37:25.704Z,21.09
2019-02-12T20:39:54.101Z,21.09
2019-02-12T20:42:22.537Z,21.09
2019-02-12T20:44:50.927Z,21.07
2019-02-12T20:47:19.301Z,21.08
2019-02-12T20:49:47.731Z,21.07
2019-02-12T20:52:16.106Z,21.05
2019-02-12T20:54:44.524Z,21.06
2019-02-12T20:57:15.101Z,21.05
2019-02-12T20:59:43.003Z,21.03
2019-02-12T21:02:11.390Z,21.02
2019-02-12T21:04:39.771Z,21.02
2019-02-12T21:07:09.178Z,21.00
2019-02-12T21:09:37.558Z,21.00
2019-02-12T21:12:05.943Z,20.98
2019-02-12T21:14:34.483Z,20.97
2019-02-12T21:17:02.852Z,20.96
2019-02-12T21:19:31.310Z,20.95
2019-02-12T21:21:59.679Z,20.93
2019-02-12T21:24:28.059Z,20.92
2019-02-12T21:26:56.428Z,20.92
2019-02-12T21:29:24.921Z,20.90
2019-02-12T21:31:53.324Z,20.89
2019-02-12T21:34:21.705Z,21.10
2019-02-12T21:36:50.078Z,21.08
2019-02-12T21:39:20.102Z,21.00
2019-02-12T21:41:48.476Z,20.95
2019-02-12T21:44:16.860Z,20.91
2019-02-12T21:46:45.229Z,20.90
2019-02-12T21:49:13.613Z,20.86
2019-02-12T21:51:41.984Z,20.86
2019-02-12T21:54:10.374Z,20.85
2019-02-12T21:56:39.683Z,20.84
2019-02-12T21:59:08.078Z,20.83
2019-02-12T22:01:36.451Z,20.82
2019-02-12T22:04:05.026Z,20.82
2019-02-12T22:06:33.377Z,20.82
2019-02-12T22:09:01.764Z,20.81
2019-02-12T22:11:30.135Z,20.79
2019-02-12T22:13:58.516Z,20.79
2019-02-12T22:16:26.888Z,20.79
2019-02-12T22:18:55.532Z,20.78
2019-02-12T22:21:23.920Z,20.77
2019-02-12T22:23:52.315Z,20.77
2019-02-12T22:26:20.685Z,20.77
2019-02-12T22:28:49.083Z,20.76
2019-02-12T22:31:17.472Z,20.76
2019-02-12T22:33:45.854Z,20.75
2019-02-12T22:36:14.230Z,20.75
2019-02-12T22:38:42.689Z,20.74
2019-02-12T22:41:11.059Z,20.74
2019-02-12T22:43:39.997Z,20.71
2019-02-12T22:46:08.369Z,20.71
2019-02-12T22:48:36.737Z,20.74
2019-02-12T22:51:05.125Z,20.73
2019-02-12T22:53:33.496Z,20.72
2019-02-12T22:56:01.979Z,20.70
2019-02-12T22:58:30.334Z,20.70
2019-02-12T23:01:01.336Z,20.70
2019-02-12T23:03:29.702Z,20.69
2019-02-12T23:05:58.085Z,20.69
2019-02-12T23:08:26.449Z,20.68
2019-02-12T23:10:54.836Z,20.68
2019-02-12T23:13:23.247Z,20.67
2019-02-12T23:15:51.632Z,20.67
2019-02-12T23:18:20.007Z,20.66
2019-02-12T23:20:48.486Z,20.65
2019-02-12T23:23:16.864Z,20.65
2019-02-12T23:25:45.257Z,20.65
2019-02-12T23:28:13.625Z,20.63
2019-02-12T23:30:42.014Z,20.62
2019-02-12T23:33:10.385Z,20.62
2019-02-12T23:35:38.779Z,20.62
2019-02-12T23:38:07.197Z,20.61
2019-02-12T23:40:35.580Z,20.60
2019-02-12T23:43:03.947Z,20.59
2019-02-12T23:45:32.338Z,20.59
2019-02-12T23:48:00.746Z,20.58
2019-02-12T23:50:29.260Z,20.57
2019-02-12T23:52:58.108Z,20.57
2019-02-12T23:55:26.487Z,20.57
2019-02-12T23:57:54.859Z,20.54
